sensor_id;sensor_type;location;lat;lon;timestamp;P1;durP1;ratioP1;P2;durP2;ratioP2
33810;SDS011;20119;48.334;16.206;2022-07-05T00:01:52;7.65;;;4.50;;
33810;SDS011;20119;48.334;16.206;2022-07-05T00:04:21;10.05;;;4.32;;
33810;SDS011;20119;48.334;16.206;2022-07-05T00:12:17;7.32;;;4.60;;
33810;SDS011;20119;48.334;16.206;2022-07-05T00:14:48;9.18;;;4.68;;
33810;SDS011;20119;48.334;16.206;2022-07-05T00:17:16;9.60;;;5.38;;
33810;SDS011;20119;48.334;16.206;2022-07-05T00:19:46;9.60;;;4.90;;
33810;SDS011;20119;48.334;16.206;2022-07-05T00:37:51;10.55;;;5.50;;
33810;SDS011;20119;48.334;16.206;2022-07-05T00:48:24;10.95;;;4.90;;
33810;SDS011;20119;48.334;16.206;2022-07-05T00:51:11;15.23;;;6.07;;
33810;SDS011;20119;48.334;16.206;2022-07-05T00:58:51;20.30;;;6.63;;
33810;SDS011;20119;48.334;16.206;2022-07-05T01:01:19;12.23;;;6.32;;
33810;SDS011;20119;48.334;16.206;2022-07-05T01:03:47;16.33;;;6.35;;
33810;SDS011;20119;48.334;16.206;2022-07-05T01:06:15;13.38;;;6.97;;
33810;SDS011;20119;48.334;16.206;2022-07-05T01:08:43;13.00;;;6.95;;
33810;SDS011;20119;48.334;16.206;2022-07-05T01:11:13;15.70;;;7.90;;
33810;SDS011;20119;48.334;16.206;2022-07-05T01:13:41;11.45;;;7.30;;
33810;SDS011;20119;48.334;16.206;2022-07-05T01:26:32;11.60;;;8.20;;
33810;SDS011;20119;48.334;16.206;2022-07-05T01:29:00;15.15;;;8.57;;
33810;SDS011;20119;48.334;16.206;2022-07-05T01:36:38;10.10;;;6.90;;
33810;SDS011;20119;48.334;16.206;2022-07-05T01:39:07;11.00;;;7.38;;
33810;SDS011;20119;48.334;16.206;2022-07-05T01:52:11;16.80;;;8.10;;
33810;SDS011;20119;48.334;16.206;2022-07-05T01:57:17;16.58;;;8.23;;
33810;SDS011;20119;48.334;16.206;2022-07-05T01:59:45;14.00;;;6.90;;
33810;SDS011;20119;48.334;16.206;2022-07-05T02:20:28;17.45;;;7.75;;
33810;SDS011;20119;48.334;16.206;2022-07-05T02:22:57;25.40;;;8.35;;
33810;SDS011;20119;48.334;16.206;2022-07-05T02:25:26;23.83;;;8.77;;
33810;SDS011;20119;48.334;16.206;2022-07-05T02:27:55;17.23;;;7.78;;
33810;SDS011;20119;48.334;16.206;2022-07-05T02:30:29;15.50;;;6.50;;
33810;SDS011;20119;48.334;16.206;2022-07-05T03:17:05;14.75;;;7.60;;
33810;SDS011;20119;48.334;16.206;2022-07-05T03:19:33;10.65;;;7.05;;
33810;SDS011;20119;48.334;16.206;2022-07-05T03:22:00;11.70;;;7.07;;
33810;SDS011;20119;48.334;16.206;2022-07-05T03:29:40;9.70;;;7.13;;
33810;SDS011;20119;48.334;16.206;2022-07-05T03:34:45;12.15;;;6.80;;
33810;SDS011;20119;48.334;16.206;2022-07-05T03:37:12;13.50;;;6.75;;
33810;SDS011;20119;48.334;16.206;2022-07-05T03:39:39;9.77;;;6.80;;
33810;SDS011;20119;48.334;16.206;2022-07-05T04:00:16;10.65;;;7.53;;
33810;SDS011;20119;48.334;16.206;2022-07-05T04:05:19;8.82;;;7.38;;
33810;SDS011;20119;48.334;16.206;2022-07-05T04:07:47;8.80;;;6.53;;
33810;SDS011;20119;48.334;16.206;2022-07-05T04:10:16;7.28;;;6.57;;
33810;SDS011;20119;48.334;16.206;2022-07-05T04:36:00;7.13;;;4.53;;
33810;SDS011;20119;48.334;16.206;2022-07-05T04:38:27;7.82;;;4.38;;
33810;SDS011;20119;48.334;16.206;2022-07-05T04:40:55;5.65;;;4.40;;
33810;SDS011;20119;48.334;16.206;2022-07-05T04:43:23;6.03;;;3.70;;
33810;SDS011;20119;48.334;16.206;2022-07-05T04:45:51;6.03;;;3.92;;
33810;SDS011;20119;48.334;16.206;2022-07-05T04:53:30;4.47;;;2.92;;
33810;SDS011;20119;48.334;16.206;2022-07-05T04:55:58;3.33;;;2.70;;
33810;SDS011;20119;48.334;16.206;2022-07-05T04:58:25;3.95;;;2.63;;
33810;SDS011;20119;48.334;16.206;2022-07-05T05:00:52;3.40;;;2.30;;
33810;SDS011;20119;48.334;16.206;2022-07-05T05:03:19;4.90;;;2.50;;
33810;SDS011;20119;48.334;16.206;2022-07-05T05:26:59;2.78;;;1.90;;
33810;SDS011;20119;48.334;16.206;2022-07-05T05:29:33;2.95;;;1.88;;
33810;SDS011;20119;48.334;16.206;2022-07-05T05:32:04;4.22;;;1.90;;
33810;SDS011;20119;48.334;16.206;2022-07-05T05:34:31;2.53;;;1.90;;
33810;SDS011;20119;48.334;16.206;2022-07-05T05:36:59;2.15;;;1.80;;
33810;SDS011;20119;48.334;16.206;2022-07-05T05:39:27;2.25;;;2.05;;
33810;SDS011;20119;48.334;16.206;2022-07-05T05:41:54;3.15;;;2.05;;
33810;SDS011;20119;48.334;16.206;2022-07-05T05:47:13;2.72;;;2.20;;
33810;SDS011;20119;48.334;16.206;2022-07-05T05:49:40;2.95;;;2.05;;
33810;SDS011;20119;48.334;16.206;2022-07-05T05:52:08;3.65;;;2.60;;
33810;SDS011;20119;48.334;16.206;2022-07-05T05:54:35;2.63;;;2.30;;
33810;SDS011;20119;48.334;16.206;2022-07-05T05:57:02;3.35;;;2.67;;
33810;SDS011;20119;48.334;16.206;2022-07-05T05:59:29;2.63;;;2.40;;
33810;SDS011;20119;48.334;16.206;2022-07-05T06:01:56;3.35;;;2.60;;
33810;SDS011;20119;48.334;16.206;2022-07-05T06:04:28;3.47;;;2.50;;
33810;SDS011;20119;48.334;16.206;2022-07-05T06:06:56;2.92;;;2.63;;
33810;SDS011;20119;48.334;16.206;2022-07-05T06:09:23;3.25;;;2.60;;
33810;SDS011;20119;48.334;16.206;2022-07-05T06:14:26;2.97;;;2.70;;
33810;SDS011;20119;48.334;16.206;2022-07-05T06:16:53;2.80;;;2.50;;
33810;SDS011;20119;48.334;16.206;2022-07-05T06:19:20;2.40;;;2.20;;
33810;SDS011;20119;48.334;16.206;2022-07-05T06:21:52;5.10;;;2.40;;
33810;SDS011;20119;48.334;16.206;2022-07-05T06:34:42;3.35;;;1.73;;
33810;SDS011;20119;48.334;16.206;2022-07-05T06:45:11;1.85;;;1.40;;
33810;SDS011;20119;48.334;16.206;2022-07-05T06:47:38;2.08;;;1.40;;
33810;SDS011;20119;48.334;16.206;2022-07-05T06:50:07;1.73;;;1.30;;
33810;SDS011;20119;48.334;16.206;2022-07-05T06:52:36;4.30;;;1.40;;
33810;SDS011;20119;48.334;16.206;2022-07-05T06:55:04;1.65;;;1.20;;
33810;SDS011;20119;48.334;16.206;2022-07-05T06:57:33;1.92;;;1.20;;
33810;SDS011;20119;48.334;16.206;2022-07-05T07:00:00;1.40;;;1.30;;
33810;SDS011;20119;48.334;16.206;2022-07-05T07:02:32;2.67;;;1.13;;
33810;SDS011;20119;48.334;16.206;2022-07-05T07:05:01;1.70;;;1.20;;
33810;SDS011;20119;48.334;16.206;2022-07-05T07:07:30;1.80;;;1.08;;
33810;SDS011;20119;48.334;16.206;2022-07-05T07:10:14;1.67;;;1.20;;
33810;SDS011;20119;48.334;16.206;2022-07-05T07:12:42;3.10;;;1.20;;
33810;SDS011;20119;48.334;16.206;2022-07-05T07:15:11;1.55;;;1.10;;
33810;SDS011;20119;48.334;16.206;2022-07-05T07:17:41;2.08;;;1.10;;
33810;SDS011;20119;48.334;16.206;2022-07-05T07:20:10;1.27;;;1.02;;
33810;SDS011;20119;48.334;16.206;2022-07-05T07:22:38;1.45;;;1.05;;
33810;SDS011;20119;48.334;16.206;2022-07-05T07:25:05;3.00;;;1.27;;
33810;SDS011;20119;48.334;16.206;2022-07-05T07:27:40;2.75;;;1.00;;
33810;SDS011;20119;48.334;16.206;2022-07-05T07:30:10;1.20;;;1.10;;
33810;SDS011;20119;48.334;16.206;2022-07-05T07:32:41;2.33;;;1.10;;
33810;SDS011;20119;48.334;16.206;2022-07-05T07:40:19;1.75;;;1.00;;
33810;SDS011;20119;48.334;16.206;2022-07-05T07:45:21;0.77;;;0.77;;
33810;SDS011;20119;48.334;16.206;2022-07-05T08:13:43;1.35;;;1.20;;
33810;SDS011;20119;48.334;16.206;2022-07-05T08:21:23;2.67;;;1.30;;
33810;SDS011;20119;48.334;16.206;2022-07-05T08:24:03;1.95;;;1.30;;
33810;SDS011;20119;48.334;16.206;2022-07-05T08:29:12;4.88;;;1.35;;
33810;SDS011;20119;48.334;16.206;2022-07-05T08:42:02;2.30;;;1.55;;
33810;SDS011;20119;48.334;16.206;2022-07-05T08:44:32;1.70;;;1.60;;
33810;SDS011;20119;48.334;16.206;2022-07-05T08:47:04;2.65;;;1.65;;
33810;SDS011;20119;48.334;16.206;2022-07-05T08:49:37;2.03;;;1.92;;
33810;SDS011;20119;48.334;16.206;2022-07-05T08:54:41;2.50;;;2.28;;
33810;SDS011;20119;48.334;16.206;2022-07-05T09:17:49;3.03;;;1.90;;
33810;SDS011;20119;48.334;16.206;2022-07-05T09:20:16;3.55;;;2.30;;
33810;SDS011;20119;48.334;16.206;2022-07-05T09:22:48;3.22;;;2.55;;
33810;SDS011;20119;48.334;16.206;2022-07-05T09:25:19;4.10;;;2.40;;
33810;SDS011;20119;48.334;16.206;2022-07-05T09:27:57;3.87;;;2.37;;
33810;SDS011;20119;48.334;16.206;2022-07-05T09:30:36;3.10;;;2.20;;
33810;SDS011;20119;48.334;16.206;2022-07-05T09:35:41;2.60;;;2.40;;
33810;SDS011;20119;48.334;16.206;2022-07-05T09:38:16;3.92;;;2.40;;
33810;SDS011;20119;48.334;16.206;2022-07-05T09:40:47;5.03;;;2.60;;
33810;SDS011;20119;48.334;16.206;2022-07-05T09:43:16;3.13;;;2.47;;
33810;SDS011;20119;48.334;16.206;2022-07-05T09:45:50;3.03;;;2.60;;
33810;SDS011;20119;48.334;16.206;2022-07-05T09:53:44;4.03;;;3.20;;
33810;SDS011;20119;48.334;16.206;2022-07-05T09:58:40;3.47;;;2.92;;
33810;SDS011;20119;48.334;16.206;2022-07-05T10:01:28;3.38;;;2.95;;
33810;SDS011;20119;48.334;16.206;2022-07-05T10:16:59;4.53;;;3.17;;
33810;SDS011;20119;48.334;16.206;2022-07-05T10:19:30;3.45;;;2.88;;
33810;SDS011;20119;48.334;16.206;2022-07-05T10:22:07;3.67;;;2.85;;
33810;SDS011;20119;48.334;16.206;2022-07-05T10:24:35;5.40;;;2.60;;
33810;SDS011;20119;48.334;16.206;2022-07-05T10:29:39;4.53;;;2.90;;
33810;SDS011;20119;48.334;16.206;2022-07-05T10:32:22;3.42;;;3.03;;
33810;SDS011;20119;48.334;16.206;2022-07-05T10:34:51;3.58;;;2.90;;
33810;SDS011;20119;48.334;16.206;2022-07-05T10:37:21;3.38;;;3.08;;
33810;SDS011;20119;48.334;16.206;2022-07-05T10:39:52;3.85;;;3.22;;
33810;SDS011;20119;48.334;16.206;2022-07-05T10:42:24;3.60;;;3.30;;
33810;SDS011;20119;48.334;16.206;2022-07-05T10:44:54;3.90;;;3.30;;
33810;SDS011;20119;48.334;16.206;2022-07-05T10:55:20;3.92;;;3.63;;
33810;SDS011;20119;48.334;16.206;2022-07-05T11:00:45;3.90;;;3.60;;
33810;SDS011;20119;48.334;16.206;2022-07-05T11:03:41;4.70;;;3.65;;
33810;SDS011;20119;48.334;16.206;2022-07-05T11:06:18;4.53;;;3.20;;
33810;SDS011;20119;48.334;16.206;2022-07-05T11:16:35;4.18;;;3.78;;
33810;SDS011;20119;48.334;16.206;2022-07-05T11:24:21;5.07;;;4.63;;
33810;SDS011;20119;48.334;16.206;2022-07-05T11:26:50;4.63;;;4.22;;
33810;SDS011;20119;48.334;16.206;2022-07-05T11:32:20;5.03;;;4.57;;
33810;SDS011;20119;48.334;16.206;2022-07-05T11:34:50;4.70;;;4.30;;
33810;SDS011;20119;48.334;16.206;2022-07-05T11:37:19;5.00;;;4.50;;
33810;SDS011;20119;48.334;16.206;2022-07-05T11:42:49;6.18;;;4.65;;
33810;SDS011;20119;48.334;16.206;2022-07-05T11:45:17;4.93;;;4.53;;
33810;SDS011;20119;48.334;16.206;2022-07-05T11:47:46;4.88;;;4.50;;
33810;SDS011;20119;48.334;16.206;2022-07-05T11:50:14;4.50;;;4.20;;
33810;SDS011;20119;48.334;16.206;2022-07-05T11:52:41;5.30;;;4.80;;
33810;SDS011;20119;48.334;16.206;2022-07-05T11:55:13;5.25;;;4.85;;
33810;SDS011;20119;48.334;16.206;2022-07-05T11:57:47;5.30;;;4.80;;
33810;SDS011;20119;48.334;16.206;2022-07-05T12:00:24;6.30;;;5.10;;
33810;SDS011;20119;48.334;16.206;2022-07-05T12:02:55;6.03;;;5.05;;
33810;SDS011;20119;48.334;16.206;2022-07-05T12:05:28;5.05;;;4.65;;
33810;SDS011;20119;48.334;16.206;2022-07-05T12:07:57;5.75;;;5.25;;
33810;SDS011;20119;48.334;16.206;2022-07-05T12:10:25;6.05;;;5.45;;
33810;SDS011;20119;48.334;16.206;2022-07-05T12:13:09;5.70;;;5.20;;
33810;SDS011;20119;48.334;16.206;2022-07-05T12:15:40;5.72;;;5.03;;
33810;SDS011;20119;48.334;16.206;2022-07-05T12:18:13;5.07;;;4.68;;
33810;SDS011;20119;48.334;16.206;2022-07-05T12:20:41;4.78;;;4.38;;
33810;SDS011;20119;48.334;16.206;2022-07-05T12:23:10;4.80;;;4.40;;
33810;SDS011;20119;48.334;16.206;2022-07-05T12:25:40;4.68;;;4.25;;
33810;SDS011;20119;48.334;16.206;2022-07-05T12:28:09;4.88;;;4.18;;
33810;SDS011;20119;48.334;16.206;2022-07-05T12:30:37;4.40;;;4.00;;
33810;SDS011;20119;48.334;16.206;2022-07-05T12:33:05;4.85;;;4.43;;
33810;SDS011;20119;48.334;16.206;2022-07-05T12:35:38;5.22;;;4.32;;
33810;SDS011;20119;48.334;16.206;2022-07-05T12:38:08;4.55;;;4.25;;
33810;SDS011;20119;48.334;16.206;2022-07-05T12:40:37;4.35;;;3.63;;
33810;SDS011;20119;48.334;16.206;2022-07-05T12:43:07;3.70;;;3.40;;
33810;SDS011;20119;48.334;16.206;2022-07-05T12:45:36;3.92;;;3.53;;
33810;SDS011;20119;48.334;16.206;2022-07-05T12:48:06;3.87;;;3.57;;
33810;SDS011;20119;48.334;16.206;2022-07-05T12:50:47;4.80;;;3.50;;
33810;SDS011;20119;48.334;16.206;2022-07-05T12:53:15;5.32;;;3.38;;
33810;SDS011;20119;48.334;16.206;2022-07-05T12:56:01;3.50;;;3.20;;
33810;SDS011;20119;48.334;16.206;2022-07-05T12:58:44;3.75;;;3.45;;
33810;SDS011;20119;48.334;16.206;2022-07-05T13:01:21;3.30;;;3.00;;
33810;SDS011;20119;48.334;16.206;2022-07-05T13:03:57;3.10;;;2.90;;
33810;SDS011;20119;48.334;16.206;2022-07-05T13:06:41;4.30;;;3.22;;
33810;SDS011;20119;48.334;16.206;2022-07-05T13:09:09;3.80;;;3.30;;
33810;SDS011;20119;48.334;16.206;2022-07-05T13:11:37;3.65;;;3.35;;
33810;SDS011;20119;48.334;16.206;2022-07-05T13:14:05;4.43;;;3.30;;
33810;SDS011;20119;48.334;16.206;2022-07-05T13:16:34;3.63;;;3.33;;
33810;SDS011;20119;48.334;16.206;2022-07-05T13:21:37;3.60;;;3.30;;
33810;SDS011;20119;48.334;16.206;2022-07-05T13:24:06;3.25;;;3.05;;
33810;SDS011;20119;48.334;16.206;2022-07-05T13:26:38;3.35;;;3.05;;
33810;SDS011;20119;48.334;16.206;2022-07-05T13:29:05;3.03;;;2.80;;
33810;SDS011;20119;48.334;16.206;2022-07-05T13:31:34;3.30;;;2.95;;
33810;SDS011;20119;48.334;16.206;2022-07-05T13:34:01;3.28;;;3.05;;
33810;SDS011;20119;48.334;16.206;2022-07-05T13:36:29;3.38;;;3.00;;
33810;SDS011;20119;48.334;16.206;2022-07-05T13:38:58;3.13;;;2.90;;
33810;SDS011;20119;48.334;16.206;2022-07-05T13:41:27;3.00;;;2.80;;
33810;SDS011;20119;48.334;16.206;2022-07-05T13:43:55;5.03;;;3.22;;
33810;SDS011;20119;48.334;16.206;2022-07-05T13:46:23;3.30;;;3.00;;
33810;SDS011;20119;48.334;16.206;2022-07-05T13:48:51;2.92;;;2.72;;
33810;SDS011;20119;48.334;16.206;2022-07-05T13:51:19;3.40;;;2.88;;
33810;SDS011;20119;48.334;16.206;2022-07-05T13:53:47;3.03;;;2.72;;
33810;SDS011;20119;48.334;16.206;2022-07-05T13:56:15;3.08;;;2.80;;
33810;SDS011;20119;48.334;16.206;2022-07-05T13:58:45;2.90;;;2.70;;
33810;SDS011;20119;48.334;16.206;2022-07-05T14:01:13;3.53;;;3.00;;
33810;SDS011;20119;48.334;16.206;2022-07-05T14:03:40;4.20;;;2.72;;
33810;SDS011;20119;48.334;16.206;2022-07-05T14:06:09;3.20;;;2.90;;
33810;SDS011;20119;48.334;16.206;2022-07-05T14:08:37;4.28;;;2.55;;
33810;SDS011;20119;48.334;16.206;2022-07-05T14:13:36;3.15;;;2.80;;
33810;SDS011;20119;48.334;16.206;2022-07-05T14:16:06;3.00;;;2.80;;
33810;SDS011;20119;48.334;16.206;2022-07-05T14:21:02;4.65;;;2.92;;
33810;SDS011;20119;48.334;16.206;2022-07-05T14:23:31;3.00;;;2.80;;
33810;SDS011;20119;48.334;16.206;2022-07-05T14:26:00;3.03;;;2.83;;
33810;SDS011;20119;48.334;16.206;2022-07-05T14:28:30;3.08;;;2.88;;
33810;SDS011;20119;48.334;16.206;2022-07-05T14:30:58;3.28;;;3.00;;
33810;SDS011;20119;48.334;16.206;2022-07-05T14:33:27;3.40;;;3.10;;
33810;SDS011;20119;48.334;16.206;2022-07-05T14:35:55;3.30;;;3.00;;
33810;SDS011;20119;48.334;16.206;2022-07-05T14:38:24;3.45;;;3.15;;
33810;SDS011;20119;48.334;16.206;2022-07-05T14:40:52;3.88;;;3.30;;
33810;SDS011;20119;48.334;16.206;2022-07-05T14:43:19;3.72;;;3.42;;
33810;SDS011;20119;48.334;16.206;2022-07-05T14:45:50;3.67;;;3.45;;
33810;SDS011;20119;48.334;16.206;2022-07-05T14:48:19;4.00;;;3.70;;
33810;SDS011;20119;48.334;16.206;2022-07-05T14:50:49;4.63;;;3.47;;
33810;SDS011;20119;48.334;16.206;2022-07-05T14:53:17;5.35;;;3.65;;
33810;SDS011;20119;48.334;16.206;2022-07-05T14:55:45;3.80;;;3.47;;
33810;SDS011;20119;48.334;16.206;2022-07-05T14:58:14;3.75;;;3.42;;
33810;SDS011;20119;48.334;16.206;2022-07-05T15:00:42;3.97;;;3.58;;
33810;SDS011;20119;48.334;16.206;2022-07-05T15:03:09;4.57;;;3.70;;
33810;SDS011;20119;48.334;16.206;2022-07-05T15:05:38;4.05;;;3.50;;
33810;SDS011;20119;48.334;16.206;2022-07-05T15:08:08;3.63;;;3.33;;
33810;SDS011;20119;48.334;16.206;2022-07-05T15:13:04;4.00;;;3.70;;
33810;SDS011;20119;48.334;16.206;2022-07-05T15:15:33;4.47;;;4.10;;
33810;SDS011;20119;48.334;16.206;2022-07-05T15:18:00;4.18;;;3.78;;
33810;SDS011;20119;48.334;16.206;2022-07-05T15:20:28;4.75;;;4.18;;
33810;SDS011;20119;48.334;16.206;2022-07-05T15:22:56;4.15;;;3.85;;
33810;SDS011;20119;48.334;16.206;2022-07-05T15:25:26;4.45;;;3.92;;
33810;SDS011;20119;48.334;16.206;2022-07-05T15:27:54;4.20;;;3.80;;
33810;SDS011;20119;48.334;16.206;2022-07-05T15:32:52;4.68;;;4.28;;
33810;SDS011;20119;48.334;16.206;2022-07-05T15:37:56;4.88;;;4.38;;
33810;SDS011;20119;48.334;16.206;2022-07-05T15:40:26;4.90;;;4.07;;
33810;SDS011;20119;48.334;16.206;2022-07-05T15:42:55;4.78;;;4.38;;
33810;SDS011;20119;48.334;16.206;2022-07-05T15:45:22;4.50;;;4.20;;
33810;SDS011;20119;48.334;16.206;2022-07-05T15:47:51;5.07;;;4.57;;
33810;SDS011;20119;48.334;16.206;2022-07-05T15:50:23;5.15;;;4.65;;
33810;SDS011;20119;48.334;16.206;2022-07-05T15:52:54;5.07;;;4.57;;
33810;SDS011;20119;48.334;16.206;2022-07-05T15:55:23;4.83;;;4.43;;
33810;SDS011;20119;48.334;16.206;2022-07-05T15:57:55;5.07;;;4.57;;
33810;SDS011;20119;48.334;16.206;2022-07-05T16:00:23;4.50;;;4.20;;
33810;SDS011;20119;48.334;16.206;2022-07-05T16:02:50;4.75;;;4.35;;
33810;SDS011;20119;48.334;16.206;2022-07-05T16:05:19;5.35;;;4.45;;
33810;SDS011;20119;48.334;16.206;2022-07-05T16:07:46;5.30;;;4.80;;
33810;SDS011;20119;48.334;16.206;2022-07-05T16:10:16;5.25;;;4.85;;
33810;SDS011;20119;48.334;16.206;2022-07-05T16:12:46;5.47;;;5.03;;
33810;SDS011;20119;48.334;16.206;2022-07-05T16:15:13;5.13;;;4.72;;
33810;SDS011;20119;48.334;16.206;2022-07-05T16:18:02;5.25;;;4.85;;
33810;SDS011;20119;48.334;16.206;2022-07-05T16:20:30;5.30;;;4.90;;
33810;SDS011;20119;48.334;16.206;2022-07-05T16:22:59;5.28;;;4.88;;
33810;SDS011;20119;48.334;16.206;2022-07-05T16:25:27;4.72;;;4.32;;
33810;SDS011;20119;48.334;16.206;2022-07-05T16:27:59;5.15;;;4.70;;
33810;SDS011;20119;48.334;16.206;2022-07-05T16:30:28;5.30;;;4.85;;
33810;SDS011;20119;48.334;16.206;2022-07-05T16:32:55;5.10;;;4.70;;
33810;SDS011;20119;48.334;16.206;2022-07-05T16:35:23;6.20;;;4.80;;
33810;SDS011;20119;48.334;16.206;2022-07-05T16:37:51;5.20;;;4.70;;
33810;SDS011;20119;48.334;16.206;2022-07-05T16:40:23;5.10;;;4.70;;
33810;SDS011;20119;48.334;16.206;2022-07-05T16:42:50;5.00;;;4.60;;
33810;SDS011;20119;48.334;16.206;2022-07-05T16:45:20;4.95;;;4.53;;
33810;SDS011;20119;48.334;16.206;2022-07-05T16:47:47;5.30;;;4.68;;
33810;SDS011;20119;48.334;16.206;2022-07-05T16:50:14;4.35;;;4.05;;
33810;SDS011;20119;48.334;16.206;2022-07-05T16:52:46;4.60;;;4.30;;
33810;SDS011;20119;48.334;16.206;2022-07-05T16:55:13;4.40;;;4.00;;
33810;SDS011;20119;48.334;16.206;2022-07-05T16:57:41;4.45;;;4.15;;
33810;SDS011;20119;48.334;16.206;2022-07-05T17:00:10;4.03;;;3.72;;
33810;SDS011;20119;48.334;16.206;2022-07-05T17:02:41;4.10;;;3.80;;
33810;SDS011;20119;48.334;16.206;2022-07-05T17:05:08;4.40;;;4.00;;
33810;SDS011;20119;48.334;16.206;2022-07-05T17:07:35;4.70;;;3.80;;
33810;SDS011;20119;48.334;16.206;2022-07-05T17:10:04;3.92;;;3.63;;
33810;SDS011;20119;48.334;16.206;2022-07-05T17:12:32;4.30;;;3.90;;
33810;SDS011;20119;48.334;16.206;2022-07-05T17:15:00;4.05;;;3.75;;
33810;SDS011;20119;48.334;16.206;2022-07-05T17:17:28;5.15;;;3.85;;
33810;SDS011;20119;48.334;16.206;2022-07-05T17:22:47;4.10;;;3.80;;
33810;SDS011;20119;48.334;16.206;2022-07-05T17:25:17;4.38;;;4.07;;
33810;SDS011;20119;48.334;16.206;2022-07-05T17:27:45;4.20;;;3.90;;
33810;SDS011;20119;48.334;16.206;2022-07-05T17:30:17;4.13;;;3.72;;
33810;SDS011;20119;48.334;16.206;2022-07-05T17:32:44;5.20;;;4.00;;
33810;SDS011;20119;48.334;16.206;2022-07-05T17:35:12;4.15;;;3.85;;
33810;SDS011;20119;48.334;16.206;2022-07-05T17:37:41;4.38;;;3.95;;
33810;SDS011;20119;48.334;16.206;2022-07-05T17:40:12;4.60;;;4.28;;
33810;SDS011;20119;48.334;16.206;2022-07-05T17:42:43;4.70;;;4.30;;
33810;SDS011;20119;48.334;16.206;2022-07-05T17:45:13;4.40;;;4.10;;
33810;SDS011;20119;48.334;16.206;2022-07-05T17:47:44;4.40;;;4.07;;
33810;SDS011;20119;48.334;16.206;2022-07-05T17:50:12;4.50;;;4.10;;
33810;SDS011;20119;48.334;16.206;2022-07-05T17:52:40;6.25;;;4.80;;
33810;SDS011;20119;48.334;16.206;2022-07-05T17:55:08;4.93;;;4.20;;
33810;SDS011;20119;48.334;16.206;2022-07-05T17:57:37;5.28;;;4.50;;
33810;SDS011;20119;48.334;16.206;2022-07-05T18:00:05;4.30;;;3.90;;
33810;SDS011;20119;48.334;16.206;2022-07-05T18:02:35;4.18;;;3.78;;
33810;SDS011;20119;48.334;16.206;2022-07-05T18:05:03;4.47;;;3.83;;
33810;SDS011;20119;48.334;16.206;2022-07-05T18:07:31;4.03;;;3.72;;
33810;SDS011;20119;48.334;16.206;2022-07-05T18:09:59;6.25;;;4.10;;
33810;SDS011;20119;48.334;16.206;2022-07-05T18:12:26;4.20;;;3.80;;
33810;SDS011;20119;48.334;16.206;2022-07-05T18:14:56;4.45;;;3.80;;
33810;SDS011;20119;48.334;16.206;2022-07-05T18:17:24;4.07;;;3.78;;
33810;SDS011;20119;48.334;16.206;2022-07-05T18:19:51;4.10;;;3.72;;
33810;SDS011;20119;48.334;16.206;2022-07-05T18:22:18;3.88;;;3.58;;
33810;SDS011;20119;48.334;16.206;2022-07-05T18:24:46;4.20;;;3.80;;
33810;SDS011;20119;48.334;16.206;2022-07-05T18:27:14;4.10;;;3.80;;
33810;SDS011;20119;48.334;16.206;2022-07-05T18:29:41;3.72;;;3.42;;
33810;SDS011;20119;48.334;16.206;2022-07-05T18:32:12;4.22;;;3.70;;
33810;SDS011;20119;48.334;16.206;2022-07-05T18:34:40;6.25;;;3.80;;
33810;SDS011;20119;48.334;16.206;2022-07-05T18:37:07;3.92;;;3.63;;
33810;SDS011;20119;48.334;16.206;2022-07-05T18:39:35;3.70;;;3.40;;
33810;SDS011;20119;48.334;16.206;2022-07-05T18:42:04;7.40;;;3.70;;
33810;SDS011;20119;48.334;16.206;2022-07-05T18:44:33;5.20;;;3.67;;
33810;SDS011;20119;48.334;16.206;2022-07-05T18:47:00;4.47;;;4.00;;
33810;SDS011;20119;48.334;16.206;2022-07-05T18:49:29;4.13;;;3.83;;
33810;SDS011;20119;48.334;16.206;2022-07-05T18:54:32;4.40;;;3.67;;
33810;SDS011;20119;48.334;16.206;2022-07-05T18:56:59;7.18;;;3.92;;
33810;SDS011;20119;48.334;16.206;2022-07-05T18:59:26;4.32;;;3.92;;
33810;SDS011;20119;48.334;16.206;2022-07-05T19:01:55;4.30;;;3.90;;
33810;SDS011;20119;48.334;16.206;2022-07-05T19:04:23;4.07;;;3.72;;
33810;SDS011;20119;48.334;16.206;2022-07-05T19:06:53;4.15;;;3.85;;
33810;SDS011;20119;48.334;16.206;2022-07-05T19:09:37;4.93;;;4.20;;
33810;SDS011;20119;48.334;16.206;2022-07-05T19:12:22;4.90;;;4.50;;
33810;SDS011;20119;48.334;16.206;2022-07-05T19:15:07;5.90;;;4.70;;
33810;SDS011;20119;48.334;16.206;2022-07-05T19:17:36;5.88;;;5.38;;
33810;SDS011;20119;48.334;16.206;2022-07-05T19:20:03;5.72;;;5.13;;
33810;SDS011;20119;48.334;16.206;2022-07-05T19:27:44;7.97;;;5.00;;
33810;SDS011;20119;48.334;16.206;2022-07-05T19:30:12;5.90;;;5.40;;
33810;SDS011;20119;48.334;16.206;2022-07-05T19:32:39;6.07;;;5.57;;
33810;SDS011;20119;48.334;16.206;2022-07-05T19:35:10;5.93;;;5.30;;
33810;SDS011;20119;48.334;16.206;2022-07-05T19:37:37;7.22;;;5.50;;
33810;SDS011;20119;48.334;16.206;2022-07-05T19:42:40;6.20;;;5.60;;
33810;SDS011;20119;48.334;16.206;2022-07-05T19:45:10;6.05;;;5.45;;
33810;SDS011;20119;48.334;16.206;2022-07-05T19:47:38;7.50;;;5.97;;
33810;SDS011;20119;48.334;16.206;2022-07-05T19:50:06;6.72;;;6.13;;
33810;SDS011;20119;48.334;16.206;2022-07-05T19:52:34;6.80;;;6.30;;
33810;SDS011;20119;48.334;16.206;2022-07-05T19:55:04;7.07;;;6.32;;
33810;SDS011;20119;48.334;16.206;2022-07-05T19:57:32;7.40;;;6.55;;
33810;SDS011;20119;48.334;16.206;2022-07-05T20:00:00;7.68;;;6.78;;
33810;SDS011;20119;48.334;16.206;2022-07-05T20:02:31;8.18;;;6.72;;
33810;SDS011;20119;48.334;16.206;2022-07-05T20:04:59;6.95;;;6.32;;
33810;SDS011;20119;48.334;16.206;2022-07-05T20:07:27;8.27;;;7.20;;
33810;SDS011;20119;48.334;16.206;2022-07-05T20:09:55;8.55;;;7.40;;
33810;SDS011;20119;48.334;16.206;2022-07-05T20:12:22;8.18;;;7.50;;
33810;SDS011;20119;48.334;16.206;2022-07-05T20:14:49;7.72;;;7.00;;
33810;SDS011;20119;48.334;16.206;2022-07-05T20:17:17;8.30;;;7.47;;
33810;SDS011;20119;48.334;16.206;2022-07-05T20:19:48;8.23;;;7.50;;
33810;SDS011;20119;48.334;16.206;2022-07-05T20:22:15;7.50;;;6.80;;
33810;SDS011;20119;48.334;16.206;2022-07-05T20:24:44;8.77;;;7.68;;
33810;SDS011;20119;48.334;16.206;2022-07-05T20:27:11;9.00;;;8.10;;
33810;SDS011;20119;48.334;16.206;2022-07-05T20:29:39;7.97;;;7.38;;
33810;SDS011;20119;48.334;16.206;2022-07-05T20:32:07;9.20;;;8.27;;
33810;SDS011;20119;48.334;16.206;2022-07-05T20:34:35;7.95;;;7.30;;
33810;SDS011;20119;48.334;16.206;2022-07-05T20:37:06;9.43;;;7.55;;
33810;SDS011;20119;48.334;16.206;2022-07-05T20:39:32;8.23;;;7.43;;
33810;SDS011;20119;48.334;16.206;2022-07-05T21:36:18;11.35;;;10.20;;
33810;SDS011;20119;48.334;16.206;2022-07-05T21:38:44;12.20;;;11.00;;
33810;SDS011;20119;48.334;16.206;2022-07-05T21:41:13;11.40;;;10.40;;
33810;SDS011;20119;48.334;16.206;2022-07-05T21:43:41;10.70;;;9.80;;
33810;SDS011;20119;48.334;16.206;2022-07-05T21:46:09;11.95;;;10.85;;
33810;SDS011;20119;48.334;16.206;2022-07-05T21:48:45;10.25;;;9.40;;
33810;SDS011;20119;48.334;16.206;2022-07-05T21:51:13;10.80;;;9.80;;
33810;SDS011;20119;48.334;16.206;2022-07-05T21:53:47;10.38;;;9.43;;
33810;SDS011;20119;48.334;16.206;2022-07-05T21:56:15;10.95;;;9.95;;
33810;SDS011;20119;48.334;16.206;2022-07-05T21:58:42;11.45;;;10.35;;
33810;SDS011;20119;48.334;16.206;2022-07-05T22:01:27;10.25;;;9.35;;
33810;SDS011;20119;48.334;16.206;2022-07-05T22:04:12;11.70;;;10.60;;
33810;SDS011;20119;48.334;16.206;2022-07-05T22:06:54;12.30;;;9.75;;
33810;SDS011;20119;48.334;16.206;2022-07-05T22:09:25;11.60;;;10.40;;